sensor_id;sensor_type;location;lat;lon;timestamp;P1;durP1;ratioP1;P2;durP2;ratioP2
2646;SDS011;1333;50.958;6.770;2023-04-03T00:01:06;6.00;;;2.07;;
2646;SDS011;1333;50.958;6.770;2023-04-03T00:03:32;3.23;;;2.80;;
2646;SDS011;1333;50.958;6.770;2023-04-03T00:05:58;3.47;;;2.90;;
2646;SDS011;1333;50.958;6.770;2023-04-03T00:08:24;2.23;;;2.10;;
2646;SDS011;1333;50.958;6.770;2023-04-03T00:10:50;3.07;;;2.77;;
2646;SDS011;1333;50.958;6.770;2023-04-03T00:13:15;5.23;;;2.77;;
2646;SDS011;1333;50.958;6.770;2023-04-03T00:15:41;4.20;;;2.90;;
2646;SDS011;1333;50.958;6.770;2023-04-03T00:18:07;3.30;;;3.10;;
2646;SDS011;1333;50.958;6.770;2023-04-03T00:20:34;6.40;;;3.80;;
2646;SDS011;1333;50.958;6.770;2023-04-03T00:23:00;2.50;;;2.30;;
2646;SDS011;1333;50.958;6.770;2023-04-03T00:25:26;3.53;;;2.90;;
2646;SDS011;1333;50.958;6.770;2023-04-03T00:27:52;4.43;;;3.50;;
2646;SDS011;1333;50.958;6.770;2023-04-03T00:30:18;4.97;;;2.93;;
2646;SDS011;1333;50.958;6.770;2023-04-03T00:32:47;3.23;;;2.50;;
2646;SDS011;1333;50.958;6.770;2023-04-03T00:35:16;3.80;;;3.33;;
2646;SDS011;1333;50.958;6.770;2023-04-03T00:37:43;2.83;;;2.50;;
2646;SDS011;1333;50.958;6.770;2023-04-03T00:40:10;5.27;;;3.70;;
2646;SDS011;1333;50.958;6.770;2023-04-03T00:42:37;5.17;;;3.30;;
2646;SDS011;1333;50.958;6.770;2023-04-03T00:47:29;4.07;;;3.50;;
2646;SDS011;1333;50.958;6.770;2023-04-03T00:49:56;6.27;;;3.30;;
2646;SDS011;1333;50.958;6.770;2023-04-03T00:52:23;4.70;;;3.57;;
2646;SDS011;1333;50.958;6.770;2023-04-03T00:54:53;3.93;;;3.43;;
2646;SDS011;1333;50.958;6.770;2023-04-03T00:57:21;4.10;;;3.70;;
2646;SDS011;1333;50.958;6.770;2023-04-03T00:59:52;3.33;;;3.03;;
2646;SDS011;1333;50.958;6.770;2023-04-03T01:02:22;8.63;;;4.00;;
2646;SDS011;1333;50.958;6.770;2023-04-03T01:04:48;4.50;;;3.47;;
2646;SDS011;1333;50.958;6.770;2023-04-03T01:07:24;4.80;;;3.03;;
2646;SDS011;1333;50.958;6.770;2023-04-03T01:09:56;3.63;;;3.13;;
2646;SDS011;1333;50.958;6.770;2023-04-03T01:12:25;4.53;;;4.13;;
2646;SDS011;1333;50.958;6.770;2023-04-03T01:14:56;5.53;;;4.30;;
2646;SDS011;1333;50.958;6.770;2023-04-03T01:17:26;3.90;;;3.60;;
2646;SDS011;1333;50.958;6.770;2023-04-03T01:28:06;3.83;;;3.53;;
2646;SDS011;1333;50.958;6.770;2023-04-03T01:30:38;6.20;;;4.00;;
2646;SDS011;1333;50.958;6.770;2023-04-03T01:33:24;3.50;;;3.20;;
2646;SDS011;1333;50.958;6.770;2023-04-03T01:35:50;4.30;;;3.63;;
2646;SDS011;1333;50.958;6.770;2023-04-03T01:38:15;3.20;;;2.90;;
2646;SDS011;1333;50.958;6.770;2023-04-03T01:40:41;4.37;;;3.80;;
2646;SDS011;1333;50.958;6.770;2023-04-03T01:43:07;14.83;;;8.50;;
2646;SDS011;1333;50.958;6.770;2023-04-03T01:45:32;11.93;;;8.30;;
2646;SDS011;1333;50.958;6.770;2023-04-03T01:47:58;4.80;;;4.03;;
2646;SDS011;1333;50.958;6.770;2023-04-03T01:50:24;3.80;;;3.17;;
2646;SDS011;1333;50.958;6.770;2023-04-03T01:52:49;4.20;;;3.67;;
2646;SDS011;1333;50.958;6.770;2023-04-03T01:55:15;9.50;;;4.73;;
2646;SDS011;1333;50.958;6.770;2023-04-03T01:57:41;6.83;;;4.20;;
2646;SDS011;1333;50.958;6.770;2023-04-03T02:00:06;6.63;;;4.03;;
2646;SDS011;1333;50.958;6.770;2023-04-03T02:02:32;6.73;;;5.10;;
2646;SDS011;1333;50.958;6.770;2023-04-03T02:04:58;7.20;;;4.67;;
2646;SDS011;1333;50.958;6.770;2023-04-03T02:07:24;6.47;;;4.87;;
2646;SDS011;1333;50.958;6.770;2023-04-03T02:09:49;5.47;;;4.50;;
2646;SDS011;1333;50.958;6.770;2023-04-03T02:12:15;5.70;;;3.97;;
2646;SDS011;1333;50.958;6.770;2023-04-03T02:14:40;5.10;;;4.60;;
2646;SDS011;1333;50.958;6.770;2023-04-03T02:17:06;5.40;;;4.90;;
2646;SDS011;1333;50.958;6.770;2023-04-03T02:19:33;4.73;;;4.33;;
2646;SDS011;1333;50.958;6.770;2023-04-03T02:22:00;7.07;;;5.63;;
2646;SDS011;1333;50.958;6.770;2023-04-03T02:24:26;5.47;;;4.57;;
2646;SDS011;1333;50.958;6.770;2023-04-03T02:26:52;5.17;;;4.20;;
2646;SDS011;1333;50.958;6.770;2023-04-03T02:29:18;5.07;;;4.60;;
2646;SDS011;1333;50.958;6.770;2023-04-03T02:31:44;4.30;;;3.90;;
2646;SDS011;1333;50.958;6.770;2023-04-03T02:34:09;6.57;;;4.30;;
2646;SDS011;1333;50.958;6.770;2023-04-03T02:36:35;6.50;;;4.20;;
2646;SDS011;1333;50.958;6.770;2023-04-03T02:39:00;4.83;;;3.90;;
2646;SDS011;1333;50.958;6.770;2023-04-03T02:41:26;11.40;;;4.00;;
2646;SDS011;1333;50.958;6.770;2023-04-03T02:43:58;11.50;;;8.30;;
2646;SDS011;1333;50.958;6.770;2023-04-03T02:46:24;6.40;;;5.03;;
2646;SDS011;1333;50.958;6.770;2023-04-03T02:48:49;4.00;;;3.67;;
2646;SDS011;1333;50.958;6.770;2023-04-03T02:51:15;5.90;;;4.40;;
2646;SDS011;1333;50.958;6.770;2023-04-03T02:53:40;5.03;;;4.50;;
2646;SDS011;1333;50.958;6.770;2023-04-03T02:56:06;5.17;;;3.73;;
2646;SDS011;1333;50.958;6.770;2023-04-03T02:58:32;20.43;;;10.90;;
2646;SDS011;1333;50.958;6.770;2023-04-03T03:00:57;7.83;;;5.40;;
2646;SDS011;1333;50.958;6.770;2023-04-03T03:03:22;10.67;;;5.13;;
2646;SDS011;1333;50.958;6.770;2023-04-03T03:05:48;7.40;;;3.93;;
2646;SDS011;1333;50.958;6.770;2023-04-03T03:08:14;3.83;;;3.50;;
2646;SDS011;1333;50.958;6.770;2023-04-03T03:10:39;4.53;;;3.73;;
2646;SDS011;1333;50.958;6.770;2023-04-03T03:13:05;4.03;;;3.13;;
2646;SDS011;1333;50.958;6.770;2023-04-03T03:15:30;9.83;;;6.90;;
2646;SDS011;1333;50.958;6.770;2023-04-03T03:17:56;6.07;;;5.47;;
2646;SDS011;1333;50.958;6.770;2023-04-03T03:20:21;20.30;;;10.67;;
2646;SDS011;1333;50.958;6.770;2023-04-03T03:22:47;16.83;;;8.13;;
2646;SDS011;1333;50.958;6.770;2023-04-03T03:25:12;8.00;;;4.60;;
2646;SDS011;1333;50.958;6.770;2023-04-03T03:27:38;6.77;;;5.00;;
2646;SDS011;1333;50.958;6.770;2023-04-03T03:30:04;5.67;;;4.47;;
2646;SDS011;1333;50.958;6.770;2023-04-03T03:32:30;5.50;;;4.27;;
2646;SDS011;1333;50.958;6.770;2023-04-03T03:34:56;5.33;;;4.60;;
2646;SDS011;1333;50.958;6.770;2023-04-03T03:37:21;4.20;;;3.30;;
2646;SDS011;1333;50.958;6.770;2023-04-03T03:39:47;6.80;;;4.00;;
2646;SDS011;1333;50.958;6.770;2023-04-03T03:42:12;9.57;;;4.83;;
2646;SDS011;1333;50.958;6.770;2023-04-03T03:44:38;7.07;;;3.70;;
2646;SDS011;1333;50.958;6.770;2023-04-03T03:47:03;4.20;;;3.80;;
2646;SDS011;1333;50.958;6.770;2023-04-03T03:49:30;4.07;;;3.53;;
2646;SDS011;1333;50.958;6.770;2023-04-03T03:51:56;6.63;;;4.47;;
2646;SDS011;1333;50.958;6.770;2023-04-03T03:54:22;6.70;;;3.90;;
2646;SDS011;1333;50.958;6.770;2023-04-03T03:56:47;5.40;;;3.90;;
2646;SDS011;1333;50.958;6.770;2023-04-03T03:59:12;5.60;;;3.97;;
2646;SDS011;1333;50.958;6.770;2023-04-03T04:01:38;5.87;;;3.90;;
2646;SDS011;1333;50.958;6.770;2023-04-03T04:04:04;4.00;;;3.23;;
2646;SDS011;1333;50.958;6.770;2023-04-03T04:06:30;4.03;;;3.63;;
2646;SDS011;1333;50.958;6.770;2023-04-03T04:08:56;4.63;;;3.53;;
2646;SDS011;1333;50.958;6.770;2023-04-03T04:11:21;4.03;;;3.50;;
2646;SDS011;1333;50.958;6.770;2023-04-03T04:13:47;5.10;;;3.50;;
2646;SDS011;1333;50.958;6.770;2023-04-03T04:16:12;4.53;;;3.73;;
2646;SDS011;1333;50.958;6.770;2023-04-03T04:18:38;5.80;;;3.90;;
2646;SDS011;1333;50.958;6.770;2023-04-03T04:21:03;6.77;;;5.03;;
2646;SDS011;1333;50.958;6.770;2023-04-03T04:23:29;7.80;;;4.73;;
2646;SDS011;1333;50.958;6.770;2023-04-03T04:25:54;9.07;;;4.00;;
2646;SDS011;1333;50.958;6.770;2023-04-03T04:28:20;5.53;;;3.77;;
2646;SDS011;1333;50.958;6.770;2023-04-03T04:30:45;4.70;;;4.10;;
2646;SDS011;1333;50.958;6.770;2023-04-03T04:33:11;6.90;;;3.50;;
2646;SDS011;1333;50.958;6.770;2023-04-03T04:35:38;4.30;;;3.47;;
2646;SDS011;1333;50.958;6.770;2023-04-03T04:38:04;5.30;;;3.10;;
2646;SDS011;1333;50.958;6.770;2023-04-03T04:40:30;4.00;;;3.30;;
2646;SDS011;1333;50.958;6.770;2023-04-03T04:42:56;5.20;;;3.37;;
2646;SDS011;1333;50.958;6.770;2023-04-03T04:45:21;5.20;;;3.30;;
2646;SDS011;1333;50.958;6.770;2023-04-03T04:47:47;4.10;;;3.67;;
2646;SDS011;1333;50.958;6.770;2023-04-03T04:50:13;4.20;;;3.80;;
2646;SDS011;1333;50.958;6.770;2023-04-03T04:52:38;6.07;;;3.60;;
2646;SDS011;1333;50.958;6.770;2023-04-03T04:55:04;3.97;;;3.43;;
2646;SDS011;1333;50.958;6.770;2023-04-03T04:57:30;4.27;;;3.13;;
2646;SDS011;1333;50.958;6.770;2023-04-03T04:59:56;5.60;;;3.47;;
2646;SDS011;1333;50.958;6.770;2023-04-03T05:02:21;6.00;;;4.40;;
2646;SDS011;1333;50.958;6.770;2023-04-03T05:04:47;5.90;;;3.67;;
2646;SDS011;1333;50.958;6.770;2023-04-03T05:07:14;4.97;;;3.20;;
2646;SDS011;1333;50.958;6.770;2023-04-03T05:09:40;4.87;;;4.00;;
2646;SDS011;1333;50.958;6.770;2023-04-03T05:12:07;3.83;;;3.53;;
2646;SDS011;1333;50.958;6.770;2023-04-03T05:14:32;4.83;;;3.37;;
2646;SDS011;1333;50.958;6.770;2023-04-03T05:16:58;6.90;;;4.23;;
2646;SDS011;1333;50.958;6.770;2023-04-03T05:19:23;3.77;;;2.73;;
2646;SDS011;1333;50.958;6.770;2023-04-03T05:21:49;3.87;;;3.33;;
2646;SDS011;1333;50.958;6.770;2023-04-03T05:24:15;4.13;;;3.53;;
2646;SDS011;1333;50.958;6.770;2023-04-03T05:26:41;3.83;;;3.53;;
2646;SDS011;1333;50.958;6.770;2023-04-03T05:29:07;3.60;;;2.93;;
2646;SDS011;1333;50.958;6.770;2023-04-03T05:31:33;4.17;;;3.77;;
2646;SDS011;1333;50.958;6.770;2023-04-03T05:33:58;8.23;;;3.80;;
2646;SDS011;1333;50.958;6.770;2023-04-03T05:36:24;5.20;;;3.80;;
2646;SDS011;1333;50.958;6.770;2023-04-03T05:38:50;7.00;;;3.73;;
2646;SDS011;1333;50.958;6.770;2023-04-03T05:41:16;3.50;;;3.13;;
2646;SDS011;1333;50.958;6.770;2023-04-03T05:43:41;6.33;;;3.60;;
2646;SDS011;1333;50.958;6.770;2023-04-03T05:46:14;4.57;;;3.40;;
2646;SDS011;1333;50.958;6.770;2023-04-03T05:48:41;5.03;;;3.77;;
2646;SDS011;1333;50.958;6.770;2023-04-03T05:51:09;4.40;;;3.63;;
2646;SDS011;1333;50.958;6.770;2023-04-03T05:53:40;7.53;;;2.77;;
2646;SDS011;1333;50.958;6.770;2023-04-03T05:56:07;3.90;;;3.47;;
2646;SDS011;1333;50.958;6.770;2023-04-03T05:58:33;4.63;;;3.63;;
2646;SDS011;1333;50.958;6.770;2023-04-03T06:00:58;4.83;;;3.50;;
2646;SDS011;1333;50.958;6.770;2023-04-03T06:03:24;4.03;;;3.33;;
2646;SDS011;1333;50.958;6.770;2023-04-03T06:05:50;4.43;;;3.90;;
2646;SDS011;1333;50.958;6.770;2023-04-03T06:08:15;5.13;;;4.10;;
2646;SDS011;1333;50.958;6.770;2023-04-03T06:10:41;4.43;;;2.40;;
2646;SDS011;1333;50.958;6.770;2023-04-03T06:13:07;3.77;;;2.80;;
2646;SDS011;1333;50.958;6.770;2023-04-03T06:15:32;2.93;;;2.73;;
2646;SDS011;1333;50.958;6.770;2023-04-03T06:17:59;3.57;;;2.37;;
2646;SDS011;1333;50.958;6.770;2023-04-03T06:20:24;2.53;;;1.70;;
2646;SDS011;1333;50.958;6.770;2023-04-03T06:22:50;3.03;;;2.17;;
2646;SDS011;1333;50.958;6.770;2023-04-03T06:25:16;4.23;;;2.67;;
2646;SDS011;1333;50.958;6.770;2023-04-03T06:27:43;2.60;;;1.97;;
2646;SDS011;1333;50.958;6.770;2023-04-03T06:30:09;5.63;;;1.80;;
2646;SDS011;1333;50.958;6.770;2023-04-03T06:32:35;1.63;;;1.50;;
2646;SDS011;1333;50.958;6.770;2023-04-03T06:35:01;2.60;;;2.10;;
2646;SDS011;1333;50.958;6.770;2023-04-03T06:37:27;2.80;;;2.20;;
2646;SDS011;1333;50.958;6.770;2023-04-03T06:39:53;2.50;;;2.20;;
2646;SDS011;1333;50.958;6.770;2023-04-03T06:42:19;2.80;;;2.10;;
2646;SDS011;1333;50.958;6.770;2023-04-03T06:44:45;4.83;;;3.90;;
2646;SDS011;1333;50.958;6.770;2023-04-03T06:47:12;10.33;;;5.70;;
2646;SDS011;1333;50.958;6.770;2023-04-03T06:49:39;5.07;;;4.67;;
2646;SDS011;1333;50.958;6.770;2023-04-03T06:52:05;4.00;;;3.70;;
2646;SDS011;1333;50.958;6.770;2023-04-03T06:54:31;3.00;;;2.80;;
2646;SDS011;1333;50.958;6.770;2023-04-03T06:56:57;3.47;;;2.57;;
2646;SDS011;1333;50.958;6.770;2023-04-03T06:59:23;3.77;;;2.27;;
2646;SDS011;1333;50.958;6.770;2023-04-03T07:01:48;5.00;;;2.30;;
2646;SDS011;1333;50.958;6.770;2023-04-03T07:04:14;5.00;;;2.20;;
2646;SDS011;1333;50.958;6.770;2023-04-03T07:06:40;4.30;;;2.30;;
2646;SDS011;1333;50.958;6.770;2023-04-03T07:09:07;2.37;;;1.73;;
2646;SDS011;1333;50.958;6.770;2023-04-03T07:11:34;3.67;;;2.13;;
2646;SDS011;1333;50.958;6.770;2023-04-03T07:14:00;5.03;;;2.30;;
2646;SDS011;1333;50.958;6.770;2023-04-03T07:16:26;3.23;;;2.10;;
2646;SDS011;1333;50.958;6.770;2023-04-03T07:18:52;2.50;;;2.20;;
2646;SDS011;1333;50.958;6.770;2023-04-03T07:21:17;3.43;;;2.23;;
2646;SDS011;1333;50.958;6.770;2023-04-03T07:23:43;3.37;;;1.93;;
2646;SDS011;1333;50.958;6.770;2023-04-03T07:26:08;6.30;;;2.80;;
2646;SDS011;1333;50.958;6.770;2023-04-03T07:28:34;3.23;;;2.10;;
2646;SDS011;1333;50.958;6.770;2023-04-03T07:31:05;3.03;;;2.10;;
2646;SDS011;1333;50.958;6.770;2023-04-03T07:33:33;3.00;;;1.60;;
2646;SDS011;1333;50.958;6.770;2023-04-03T07:36:00;3.00;;;1.97;;
2646;SDS011;1333;50.958;6.770;2023-04-03T07:38:26;3.70;;;1.50;;
2646;SDS011;1333;50.958;6.770;2023-04-03T07:40:52;2.90;;;1.77;;
2646;SDS011;1333;50.958;6.770;2023-04-03T07:43:18;2.53;;;1.50;;
2646;SDS011;1333;50.958;6.770;2023-04-03T07:45:46;3.63;;;1.33;;
2646;SDS011;1333;50.958;6.770;2023-04-03T07:48:14;5.27;;;1.53;;
2646;SDS011;1333;50.958;6.770;2023-04-03T07:50:40;3.13;;;1.20;;
2646;SDS011;1333;50.958;6.770;2023-04-03T07:53:06;3.43;;;1.60;;
2646;SDS011;1333;50.958;6.770;2023-04-03T07:55:32;2.47;;;1.60;;
2646;SDS011;1333;50.958;6.770;2023-04-03T07:57:58;2.03;;;1.47;;
2646;SDS011;1333;50.958;6.770;2023-04-03T08:00:24;2.43;;;1.40;;
2646;SDS011;1333;50.958;6.770;2023-04-03T08:02:50;8.23;;;6.37;;
2646;SDS011;1333;50.958;6.770;2023-04-03T08:05:19;2.30;;;1.60;;
2646;SDS011;1333;50.958;6.770;2023-04-03T08:07:46;5.20;;;1.60;;
2646;SDS011;1333;50.958;6.770;2023-04-03T08:10:12;2.03;;;1.63;;
2646;SDS011;1333;50.958;6.770;2023-04-03T08:12:39;2.70;;;1.93;;
2646;SDS011;1333;50.958;6.770;2023-04-03T08:15:04;2.10;;;1.47;;
2646;SDS011;1333;50.958;6.770;2023-04-03T08:17:31;1.57;;;1.37;;
2646;SDS011;1333;50.958;6.770;2023-04-03T08:19:56;2.10;;;1.87;;
2646;SDS011;1333;50.958;6.770;2023-04-03T08:22:22;2.93;;;1.60;;
2646;SDS011;1333;50.958;6.770;2023-04-03T08:24:47;3.87;;;1.57;;
2646;SDS011;1333;50.958;6.770;2023-04-03T08:27:13;2.60;;;1.30;;
2646;SDS011;1333;50.958;6.770;2023-04-03T08:29:38;2.90;;;1.43;;
2646;SDS011;1333;50.958;6.770;2023-04-03T08:32:04;1.47;;;1.33;;
2646;SDS011;1333;50.958;6.770;2023-04-03T08:34:30;2.97;;;1.30;;
2646;SDS011;1333;50.958;6.770;2023-04-03T08:36:59;4.20;;;1.80;;
2646;SDS011;1333;50.958;6.770;2023-04-03T08:39:25;2.87;;;1.60;;
2646;SDS011;1333;50.958;6.770;2023-04-03T08:41:51;3.17;;;1.50;;
2646;SDS011;1333;50.958;6.770;2023-04-03T08:50:06;2.10;;;1.47;;
2646;SDS011;1333;50.958;6.770;2023-04-03T08:52:51;2.70;;;1.40;;
2646;SDS011;1333;50.958;6.770;2023-04-03T08:55:25;2.00;;;1.57;;
2646;SDS011;1333;50.958;6.770;2023-04-03T08:58:15;1.90;;;1.50;;
2646;SDS011;1333;50.958;6.770;2023-04-03T09:00:59;2.43;;;1.60;;
2646;SDS011;1333;50.958;6.770;2023-04-03T09:03:32;3.00;;;1.30;;
2646;SDS011;1333;50.958;6.770;2023-04-03T09:06:05;2.23;;;1.30;;
2646;SDS011;1333;50.958;6.770;2023-04-03T09:09:25;2.60;;;1.80;;
2646;SDS011;1333;50.958;6.770;2023-04-03T09:21:58;2.10;;;1.47;;
2646;SDS011;1333;50.958;6.770;2023-04-03T09:24:43;1.87;;;1.27;;
2646;SDS011;1333;50.958;6.770;2023-04-03T09:27:11;3.67;;;2.03;;
2646;SDS011;1333;50.958;6.770;2023-04-03T09:29:41;2.10;;;1.27;;
2646;SDS011;1333;50.958;6.770;2023-04-03T09:35:01;4.23;;;1.20;;
2646;SDS011;1333;50.958;6.770;2023-04-03T09:37:33;1.53;;;1.40;;
2646;SDS011;1333;50.958;6.770;2023-04-03T09:40:02;2.47;;;1.87;;
2646;SDS011;1333;50.958;6.770;2023-04-03T09:42:29;1.50;;;1.40;;
2646;SDS011;1333;50.958;6.770;2023-04-03T09:45:05;1.43;;;1.33;;
2646;SDS011;1333;50.958;6.770;2023-04-03T09:47:46;3.27;;;1.30;;
2646;SDS011;1333;50.958;6.770;2023-04-03T09:52:42;1.77;;;1.53;;
2646;SDS011;1333;50.958;6.770;2023-04-03T09:55:17;3.73;;;1.73;;
2646;SDS011;1333;50.958;6.770;2023-04-03T09:57:46;2.17;;;1.30;;
2646;SDS011;1333;50.958;6.770;2023-04-03T10:00:19;1.20;;;1.00;;
2646;SDS011;1333;50.958;6.770;2023-04-03T10:02:51;1.50;;;1.27;;
2646;SDS011;1333;50.958;6.770;2023-04-03T10:05:28;2.50;;;1.47;;
2646;SDS011;1333;50.958;6.770;2023-04-03T10:10:43;2.20;;;1.20;;
2646;SDS011;1333;50.958;6.770;2023-04-03T10:13:15;6.63;;;5.93;;
2646;SDS011;1333;50.958;6.770;2023-04-03T10:15:44;2.10;;;1.90;;
2646;SDS011;1333;50.958;6.770;2023-04-03T10:18:39;1.77;;;1.43;;
2646;SDS011;1333;50.958;6.770;2023-04-03T10:21:27;1.90;;;1.37;;
2646;SDS011;1333;50.958;6.770;2023-04-03T10:24:43;1.60;;;1.50;;
2646;SDS011;1333;50.958;6.770;2023-04-03T10:34:42;2.00;;;1.53;;
2646;SDS011;1333;50.958;6.770;2023-04-03T10:37:14;4.23;;;1.70;;
2646;SDS011;1333;50.958;6.770;2023-04-03T10:40:03;4.30;;;1.77;;
2646;SDS011;1333;50.958;6.770;2023-04-03T10:48:14;1.53;;;1.30;;
2646;SDS011;1333;50.958;6.770;2023-04-03T10:50:52;5.37;;;1.50;;
2646;SDS011;1333;50.958;6.770;2023-04-03T10:56:41;1.93;;;1.40;;
2646;SDS011;1333;50.958;6.770;2023-04-03T11:01:43;1.63;;;1.17;;
2646;SDS011;1333;50.958;6.770;2023-04-03T11:04:12;2.40;;;1.47;;
2646;SDS011;1333;50.958;6.770;2023-04-03T11:06:43;3.13;;;1.50;;
2646;SDS011;1333;50.958;6.770;2023-04-03T11:09:37;2.03;;;1.47;;
2646;SDS011;1333;50.958;6.770;2023-04-03T11:12:12;2.60;;;1.17;;
2646;SDS011;1333;50.958;6.770;2023-04-03T11:14:50;1.33;;;1.23;;
2646;SDS011;1333;50.958;6.770;2023-04-03T11:22:41;1.97;;;1.20;;
2646;SDS011;1333;50.958;6.770;2023-04-03T11:27:38;1.23;;;1.13;;
2646;SDS011;1333;50.958;6.770;2023-04-03T11:36:24;1.40;;;1.30;;
2646;SDS011;1333;50.958;6.770;2023-04-03T11:38:57;1.83;;;1.70;;
2646;SDS011;1333;50.958;6.770;2023-04-03T11:41:26;2.30;;;1.70;;
2646;SDS011;1333;50.958;6.770;2023-04-03T11:43:58;1.60;;;1.50;;
2646;SDS011;1333;50.958;6.770;2023-04-03T11:46:49;1.40;;;1.30;;
2646;SDS011;1333;50.958;6.770;2023-04-03T11:49:50;3.23;;;1.70;;
2646;SDS011;1333;50.958;6.770;2023-04-03T12:05:50;1.60;;;1.40;;
2646;SDS011;1333;50.958;6.770;2023-04-03T12:16:07;1.70;;;1.60;;
2646;SDS011;1333;50.958;6.770;2023-04-03T12:21:14;2.43;;;1.70;;
2646;SDS011;1333;50.958;6.770;2023-04-03T12:24:13;2.03;;;1.33;;
2646;SDS011;1333;50.958;6.770;2023-04-03T12:26:43;1.50;;;1.30;;
2646;SDS011;1333;50.958;6.770;2023-04-03T12:29:23;1.40;;;1.30;;
2646;SDS011;1333;50.958;6.770;2023-04-03T12:32:05;1.80;;;1.70;;
2646;SDS011;1333;50.958;6.770;2023-04-03T12:35:04;4.33;;;3.70;;
2646;SDS011;1333;50.958;6.770;2023-04-03T12:46:09;1.30;;;1.20;;
2646;SDS011;1333;50.958;6.770;2023-04-03T12:48:50;1.43;;;1.33;;
2646;SDS011;1333;50.958;6.770;2023-04-03T12:51:21;1.40;;;1.30;;
2646;SDS011;1333;50.958;6.770;2023-04-03T12:54:01;2.30;;;1.30;;
2646;SDS011;1333;50.958;6.770;2023-04-03T12:56:30;1.37;;;1.20;;
2646;SDS011;1333;50.958;6.770;2023-04-03T13:01:55;3.67;;;1.30;;
2646;SDS011;1333;50.958;6.770;2023-04-03T13:04:22;1.60;;;1.50;;
2646;SDS011;1333;50.958;6.770;2023-04-03T13:06:49;2.40;;;1.53;;
2646;SDS011;1333;50.958;6.770;2023-04-03T13:09:25;1.77;;;1.67;;
2646;SDS011;1333;50.958;6.770;2023-04-03T13:12:00;1.97;;;1.30;;
2646;SDS011;1333;50.958;6.770;2023-04-03T13:14:28;3.00;;;1.60;;
2646;SDS011;1333;50.958;6.770;2023-04-03T13:16:56;1.50;;;1.30;;
2646;SDS011;1333;50.958;6.770;2023-04-03T13:19:29;1.50;;;1.33;;
2646;SDS011;1333;50.958;6.770;2023-04-03T13:21:59;1.90;;;1.80;;
2646;SDS011;1333;50.958;6.770;2023-04-03T13:24:29;2.00;;;1.80;;
2646;SDS011;1333;50.958;6.770;2023-04-03T13:26:56;1.50;;;1.40;;
2646;SDS011;1333;50.958;6.770;2023-04-03T13:29:26;1.30;;;1.20;;
2646;SDS011;1333;50.958;6.770;2023-04-03T13:31:58;2.17;;;1.23;;
2646;SDS011;1333;50.958;6.770;2023-04-03T13:34:26;1.63;;;1.37;;
2646;SDS011;1333;50.958;6.770;2023-04-03T13:36:58;1.83;;;1.30;;
2646;SDS011;1333;50.958;6.770;2023-04-03T13:39:26;1.40;;;1.30;;
2646;SDS011;1333;50.958;6.770;2023-04-03T13:41:58;1.80;;;1.63;;
2646;SDS011;1333;50.958;6.770;2023-04-03T13:44:44;1.40;;;1.30;;
2646;SDS011;1333;50.958;6.770;2023-04-03T13:49:40;1.20;;;1.10;;
2646;SDS011;1333;50.958;6.770;2023-04-03T13:53:09;1.40;;;1.13;;
2646;SDS011;1333;50.958;6.770;2023-04-03T13:57:55;3.07;;;1.50;;
2646;SDS011;1333;50.958;6.770;2023-04-03T14:00:35;1.70;;;1.30;;
2646;SDS011;1333;50.958;6.770;2023-04-03T14:03:07;3.63;;;1.60;;
2646;SDS011;1333;50.958;6.770;2023-04-03T14:05:42;1.73;;;1.33;;
2646;SDS011;1333;50.958;6.770;2023-04-03T14:08:10;4.97;;;1.40;;
2646;SDS011;1333;50.958;6.770;2023-04-03T14:10:35;1.57;;;1.17;;
2646;SDS011;1333;50.958;6.770;2023-04-03T14:13:02;1.60;;;1.23;;
2646;SDS011;1333;50.958;6.770;2023-04-03T14:15:28;1.50;;;1.30;;
2646;SDS011;1333;50.958;6.770;2023-04-03T14:17:56;7.53;;;6.63;;
2646;SDS011;1333;50.958;6.770;2023-04-03T14:20:24;3.87;;;3.50;;
2646;SDS011;1333;50.958;6.770;2023-04-03T14:22:51;1.70;;;1.60;;
2646;SDS011;1333;50.958;6.770;2023-04-03T14:25:18;3.93;;;1.30;;
2646;SDS011;1333;50.958;6.770;2023-04-03T14:27:48;1.47;;;1.17;;
2646;SDS011;1333;50.958;6.770;2023-04-03T14:30:19;2.80;;;1.57;;
2646;SDS011;1333;50.958;6.770;2023-04-03T14:32:50;1.70;;;1.43;;
2646;SDS011;1333;50.958;6.770;2023-04-03T14:35:16;1.40;;;1.30;;
2646;SDS011;1333;50.958;6.770;2023-04-03T14:37:43;2.03;;;1.67;;
2646;SDS011;1333;50.958;6.770;2023-04-03T14:40:14;2.37;;;1.73;;
2646;SDS011;1333;50.958;6.770;2023-04-03T14:42:42;2.17;;;1.30;;
2646;SDS011;1333;50.958;6.770;2023-04-03T14:45:08;2.70;;;1.40;;
2646;SDS011;1333;50.958;6.770;2023-04-03T14:47:39;3.27;;;3.07;;
2646;SDS011;1333;50.958;6.770;2023-04-03T14:50:17;4.13;;;2.43;;
2646;SDS011;1333;50.958;6.770;2023-04-03T14:52:46;2.20;;;1.83;;
2646;SDS011;1333;50.958;6.770;2023-04-03T14:55:14;2.70;;;1.63;;
2646;SDS011;1333;50.958;6.770;2023-04-03T14:57:41;1.93;;;1.30;;
2646;SDS011;1333;50.958;6.770;2023-04-03T15:00:07;2.43;;;1.10;;
2646;SDS011;1333;50.958;6.770;2023-04-03T15:02:38;1.77;;;1.20;;
2646;SDS011;1333;50.958;6.770;2023-04-03T15:05:06;2.07;;;1.30;;
2646;SDS011;1333;50.958;6.770;2023-04-03T15:07:34;1.40;;;1.13;;
2646;SDS011;1333;50.958;6.770;2023-04-03T15:10:16;1.93;;;1.20;;
2646;SDS011;1333;50.958;6.770;2023-04-03T15:12:42;4.17;;;3.30;;
2646;SDS011;1333;50.958;6.770;2023-04-03T15:15:08;3.30;;;1.50;;
2646;SDS011;1333;50.958;6.770;2023-04-03T15:17:35;2.00;;;1.20;;
2646;SDS011;1333;50.958;6.770;2023-04-03T15:20:02;1.53;;;1.30;;
2646;SDS011;1333;50.958;6.770;2023-04-03T15:22:28;2.90;;;1.30;;
2646;SDS011;1333;50.958;6.770;2023-04-03T15:24:54;2.97;;;1.10;;
2646;SDS011;1333;50.958;6.770;2023-04-03T15:27:19;2.10;;;1.30;;
2646;SDS011;1333;50.958;6.770;2023-04-03T15:29:45;1.97;;;1.13;;
2646;SDS011;1333;50.958;6.770;2023-04-03T15:32:10;3.33;;;1.30;;
2646;SDS011;1333;50.958;6.770;2023-04-03T15:34:37;3.63;;;1.43;;
2646;SDS011;1333;50.958;6.770;2023-04-03T15:37:03;3.83;;;1.10;;
2646;SDS011;1333;50.958;6.770;2023-04-03T15:39:29;1.10;;;0.80;;
2646;SDS011;1333;50.958;6.770;2023-04-03T15:41:55;8.03;;;1.40;;
2646;SDS011;1333;50.958;6.770;2023-04-03T15:44:24;1.70;;;1.07;;
2646;SDS011;1333;50.958;6.770;2023-04-03T15:46:50;1.43;;;1.10;;
2646;SDS011;1333;50.958;6.770;2023-04-03T15:49:16;1.50;;;1.37;;
2646;SDS011;1333;50.958;6.770;2023-04-03T15:51:42;3.53;;;1.20;;
2646;SDS011;1333;50.958;6.770;2023-04-03T15:54:08;2.30;;;0.90;;
2646;SDS011;1333;50.958;6.770;2023-04-03T15:56:33;1.77;;;1.00;;
2646;SDS011;1333;50.958;6.770;2023-04-03T15:58:59;5.23;;;1.60;;
2646;SDS011;1333;50.958;6.770;2023-04-03T16:01:25;1.47;;;1.00;;
2646;SDS011;1333;50.958;6.770;2023-04-03T16:03:50;2.87;;;1.30;;
2646;SDS011;1333;50.958;6.770;2023-04-03T16:06:16;2.40;;;1.60;;
2646;SDS011;1333;50.958;6.770;2023-04-03T16:08:43;2.40;;;1.10;;
2646;SDS011;1333;50.958;6.770;2023-04-03T16:11:11;1.93;;;1.47;;
2646;SDS011;1333;50.958;6.770;2023-04-03T16:13:36;1.40;;;0.77;;
2646;SDS011;1333;50.958;6.770;2023-04-03T16:16:02;2.73;;;1.07;;
2646;SDS011;1333;50.958;6.770;2023-04-03T16:18:29;3.70;;;1.80;;
2646;SDS011;1333;50.958;6.770;2023-04-03T16:20:55;5.00;;;1.10;;
2646;SDS011;1333;50.958;6.770;2023-04-03T16:23:21;1.47;;;0.90;;
2646;SDS011;1333;50.958;6.770;2023-04-03T16:25:47;1.40;;;1.07;;
2646;SDS011;1333;50.958;6.770;2023-04-03T16:28:14;2.90;;;1.00;;
2646;SDS011;1333;50.958;6.770;2023-04-03T16:30:42;1.93;;;1.00;;
2646;SDS011;1333;50.958;6.770;2023-04-03T16:33:09;2.27;;;1.10;;
2646;SDS011;1333;50.958;6.770;2023-04-03T16:35:36;1.87;;;0.90;;
2646;SDS011;1333;50.958;6.770;2023-04-03T16:38:02;1.70;;;1.17;;
2646;SDS011;1333;50.958;6.770;2023-04-03T16:40:27;2.60;;;1.10;;
2646;SDS011;1333;50.958;6.770;2023-04-03T16:42:53;1.37;;;1.20;;
2646;SDS011;1333;50.958;6.770;2023-04-03T16:45:18;3.20;;;2.63;;
2646;SDS011;1333;50.958;6.770;2023-04-03T16:47:44;3.60;;;1.10;;
2646;SDS011;1333;50.958;6.770;2023-04-03T16:50:09;1.47;;;1.00;;
2646;SDS011;1333;50.958;6.770;2023-04-03T16:52:35;4.60;;;1.20;;
2646;SDS011;1333;50.958;6.770;2023-04-03T16:55:01;1.30;;;0.93;;
2646;SDS011;1333;50.958;6.770;2023-04-03T16:57:27;3.10;;;1.27;;
2646;SDS011;1333;50.958;6.770;2023-04-03T16:59:52;1.30;;;0.90;;
2646;SDS011;1333;50.958;6.770;2023-04-03T17:02:19;3.60;;;1.53;;
2646;SDS011;1333;50.958;6.770;2023-04-03T17:04:46;1.73;;;1.10;;
2646;SDS011;1333;50.958;6.770;2023-04-03T17:07:11;6.60;;;1.40;;
2646;SDS011;1333;50.958;6.770;2023-04-03T17:09:37;2.60;;;0.97;;
2646;SDS011;1333;50.958;6.770;2023-04-03T17:12:03;1.93;;;1.23;;